Time;durP1;ratioP1;P1;durP2;ratioP2;P2;SDS_P1;SDS_P2;PMS_P1;PMS_P2;Temp;Humidity;BMP_temperature;BMP_pressure;BME280_temperature;BME280_humidity;BME280_pressure;Samples;Min_cycle;Max_cycle;Signal;HPM_P1;HPM_P2
2022/12/08 00:00:47;;;;;;;23.80;12.90;;;3.00;66.10;;;;;;5065024;28;46466;-71
2022/12/08 00:03:13;;;;;;;22.97;12.80;;;3.00;66.10;;;;;;5065930;28;46429;-71
2022/12/08 00:11:13;;;;;;;21.80;12.25;;;2.90;66.40;;;;;;5064349;28;46459;-70
2022/12/08 00:13:39;;;;;;;25.93;12.70;;;3.00;66.20;;;;;;5067976;28;46481;-69
2022/12/08 00:16:04;;;;;;;21.80;11.77;;;3.00;64.90;;;;;;5068550;28;47726;-70
2022/12/08 00:18:30;;;;;;;21.60;11.23;;;3.00;65.90;;;;;;5070106;28;46579;-69
2022/12/08 00:20:57;;;;;;;24.90;13.07;;;3.00;65.80;;;;;;5072348;28;46604;-70
2022/12/08 00:23:23;;;;;;;25.08;12.32;;;3.00;65.90;;;;;;5089296;27;46676;-69
2022/12/08 00:25:49;;;;;;;24.60;12.95;;;3.00;65.10;;;;;;5085969;27;48816;-70
2022/12/08 00:28:15;;;;;;;25.63;13.07;;;3.00;66.30;;;;;;5069080;28;46403;-70
2022/12/08 00:30:41;;;;;;;25.50;13.57;;;3.00;66.30;;;;;;5071809;27;46438;-69
2022/12/08 00:33:08;;;;;;;24.17;12.90;;;3.00;66.10;;;;;;5071101;28;46416;-69
2022/12/08 00:35:34;;;;;;;19.17;11.40;;;3.00;64.90;;;;;;5067959;28;48076;-68
2022/12/08 00:37:59;;;;;;;24.13;12.20;;;3.00;66.00;;;;;;5069663;28;46456;-70
2022/12/08 00:40:25;;;;;;;21.77;11.67;;;3.10;66.00;;;;;;5070937;28;46398;-68
2022/12/08 00:42:51;;;;;;;21.87;12.03;;;3.00;65.80;;;;;;5068977;28;46664;-69
2022/12/08 00:45:16;;;;;;;19.60;12.07;;;3.00;64.80;;;;;;5065620;28;47869;-69
2022/12/08 00:47:42;;;;;;;22.10;12.37;;;3.00;66.00;;;;;;5067970;28;46453;-70
2022/12/08 00:50:09;;;;;;;21.30;11.73;;;3.60;66.60;;;;;;5084617;27;46382;-69
2022/12/08 00:52:34;;;;;;;21.83;11.25;;;3.00;66.40;;;;;;5070857;28;46377;-69
2022/12/08 00:55:00;;;;;;;19.20;11.50;;;3.00;65.20;;;;;;5071497;28;48780;-70
2022/12/08 00:57:26;;;;;;;19.43;11.20;;;3.00;66.20;;;;;;5067160;28;46391;-69
2022/12/08 00:59:51;;;;;;;20.57;10.60;;;3.00;66.10;;;;;;5070964;28;45988;-70
2022/12/08 01:02:17;;;;;;;21.47;10.50;;;3.00;65.90;;;;;;5071813;28;46331;-69
2022/12/08 01:04:43;;;;;;;18.63;10.63;;;3.00;65.00;;;;;;5071798;28;48162;-69
2022/12/08 01:07:08;;;;;;;21.30;11.83;;;3.00;66.00;;;;;;5068958;28;46487;-68
2022/12/08 01:09:34;;;;;;;16.67;10.40;;;3.00;66.20;;;;;;5072739;28;46448;-72
2022/12/08 01:12:00;;;;;;;17.40;10.63;;;3.00;66.40;;;;;;5073580;28;46658;-69
2022/12/08 01:14:26;;;;;;;18.77;10.57;;;2.90;65.70;;;;;;5070036;28;46610;-70
2022/12/08 01:16:51;;;;;;;19.07;10.80;;;2.90;66.70;;;;;;5068064;28;46428;-69
2022/12/08 01:19:17;;;;;;;17.90;10.87;;;2.90;66.80;;;;;;5067713;28;46380;-70
2022/12/08 01:21:44;;;;;;;19.10;11.17;;;2.90;66.90;;;;;;5070126;28;46642;-69
2022/12/08 01:24:15;;;;;;;18.38;10.82;;;2.90;67.00;;;;;;5065875;28;48069;-69
2022/12/08 01:26:41;;;;;;;20.27;11.25;;;2.80;65.80;;;;;;5063408;28;46339;-71
2022/12/08 01:29:07;;;;;;;19.10;10.60;;;2.90;67.00;;;;;;5071645;28;46392;-69
2022/12/08 01:31:33;;;;;;;19.20;11.50;;;2.90;67.00;;;;;;5070520;28;46567;-69
2022/12/08 01:33:58;;;;;;;22.67;12.13;;;2.80;67.10;;;;;;5065198;28;48014;-70
2022/12/08 01:36:29;;;;;;;20.03;11.07;;;2.80;66.20;;;;;;5069744;28;46581;-70
2022/12/08 01:39:02;;;;;;;19.08;10.88;;;2.80;67.20;;;;;;5075914;27;46432;-71
2022/12/08 01:41:31;;;;;;;22.00;11.98;;;2.80;67.10;;;;;;5070797;28;46444;-70
2022/12/08 01:43:56;;;;;;;20.38;11.77;;;2.90;66.90;;;;;;5068987;27;47999;-70
2022/12/08 01:46:22;;;;;;;19.43;11.27;;;2.90;65.70;;;;;;5088008;27;46426;-70
2022/12/08 01:48:52;;;;;;;21.77;11.68;;;2.80;66.80;;;;;;5077583;27;46554;-70
2022/12/08 01:51:19;;;;;;;19.02;11.43;;;3.00;67.30;;;;;;5084654;27;45956;-70
2022/12/08 01:53:46;;;;;;;19.02;11.25;;;2.80;67.10;;;;;;5078416;27;48043;-69
2022/12/08 01:56:18;;;;;;;20.75;11.50;;;2.80;65.90;;;;;;5067969;28;46654;-70
2022/12/08 01:58:48;;;;;;;20.60;12.48;;;2.90;66.90;;;;;;5062267;28;46405;-69
2022/12/08 02:01:14;;;;;;;21.58;12.18;;;2.90;66.80;;;;;;5079168;27;46361;-69
2022/12/08 02:03:46;;;;;;;25.75;12.85;;;2.90;66.80;;;;;;5071079;28;46359;-69
2022/12/08 02:06:13;;;;;;;22.75;11.23;;;2.90;65.80;;;;;;5068581;28;46361;-68
2022/12/08 02:08:40;;;;;;;19.67;11.30;;;2.80;66.70;;;;;;5076061;27;46377;-71
2022/12/08 02:11:10;;;;;;;19.05;10.48;;;2.80;66.80;;;;;;5069934;28;46341;-69
2022/12/08 02:13:36;;;;;;;18.38;10.93;;;2.70;65.90;;;;;;5077560;27;49236;-70
2022/12/08 02:16:02;;;;;;;22.33;11.30;;;2.60;66.50;;;;;;5069220;28;45827;-69
2022/12/08 02:18:46;;;;;;;20.47;10.80;;;2.50;68.10;;;;;;5072897;28;46446;-69
2022/12/08 02:21:39;;;;;;;17.37;10.53;;;2.50;68.20;;;;;;5069967;28;46357;-71
2022/12/08 02:24:07;;;;;;;21.05;11.68;;;2.50;67.70;;;;;;5065112;28;46413;-69
2022/12/08 02:26:57;;;;;;;22.65;11.05;;;2.60;66.30;;;;;;5070179;28;46482;-71
2022/12/08 02:29:38;;;;;;;19.00;9.90;;;2.60;67.20;;;;;;5069326;28;46408;-69
2022/12/08 02:32:25;;;;;;;16.38;10.20;;;2.60;66.20;;;;;;5063791;28;46345;-69
2022/12/08 02:35:07;;;;;;;21.33;10.82;;;2.60;67.30;;;;;;5067553;28;48372;-71
2022/12/08 02:37:47;;;;;;;21.83;11.07;;;2.60;67.20;;;;;;5061306;28;46626;-70
2022/12/08 02:40:31;;;;;;;27.15;12.65;;;2.60;67.20;;;;;;5068446;28;45897;-69
2022/12/08 02:43:08;;;;;;;19.83;11.05;;;2.60;67.30;;;;;;5066337;28;46018;-69
2022/12/08 02:45:55;;;;;;;23.13;12.10;;;2.60;66.40;;;;;;5067706;28;48807;-70
2022/12/08 02:48:21;;;;;;;23.08;11.48;;;2.60;67.40;;;;;;5066042;28;46453;-69
2022/12/08 02:50:47;;;;;;;20.43;11.47;;;2.60;67.40;;;;;;5069795;28;46492;-69
2022/12/08 02:53:12;;;;;;;21.87;12.97;;;2.60;67.30;;;;;;5069902;28;46504;-68
2022/12/08 02:56:09;;;;;;;18.63;11.57;;;2.50;67.40;;;;;;5064284;28;48389;-68
2022/12/08 02:58:35;;;;;;;23.52;11.20;;;2.40;67.70;;;;;;5060500;28;46603;-69
2022/12/08 03:01:15;;;;;;;21.17;12.37;;;2.30;67.80;;;;;;5067100;28;46347;-70
2022/12/08 03:03:54;;;;;;;22.33;12.05;;;2.30;68.00;;;;;;5063645;28;46322;-69
2022/12/08 03:06:29;;;;;;;22.67;12.75;;;2.30;66.80;;;;;;5065450;28;46529;-69
2022/12/08 03:09:01;;;;;;;20.40;11.38;;;2.30;67.80;;;;;;5062421;28;46500;-69
2022/12/08 03:11:41;;;;;;;25.67;11.80;;;2.00;67.60;;;;;;5064345;28;46501;-69
2022/12/08 03:14:10;;;;;;;25.48;11.40;;;2.20;68.00;;;;;;5065564;28;46294;-68
2022/12/08 03:16:38;;;;;;;24.58;12.38;;;2.20;67.20;;;;;;5064598;27;48951;-70
2022/12/08 03:19:25;;;;;;;24.38;12.05;;;2.10;68.20;;;;;;5065624;28;46427;-69
2022/12/08 03:22:01;;;;;;;23.80;13.45;;;2.10;68.10;;;;;;5064326;28;46348;-68
2022/12/08 03:24:30;;;;;;;25.35;12.20;;;2.10;67.10;;;;;;5062279;28;46475;-69
2022/12/08 03:27:10;;;;;;;24.42;12.30;;;2.10;68.10;;;;;;5075250;27;48770;-70
2022/12/08 03:29:35;;;;;;;22.75;13.07;;;2.00;68.20;;;;;;5058762;28;45983;-69
2022/12/08 03:32:13;;;;;;;21.20;11.70;;;2.00;67.40;;;;;;5066510;28;46688;-69
2022/12/08 03:34:43;;;;;;;25.90;13.43;;;2.00;68.40;;;;;;5082926;27;46401;-69
2022/12/08 03:37:08;;;;;;;25.75;13.32;;;1.90;68.50;;;;;;5064179;28;47695;-69
2022/12/08 03:39:35;;;;;;;26.10;12.80;;;1.90;68.70;;;;;;5061758;28;46406;-69
2022/12/08 03:42:01;;;;;;;29.90;13.55;;;1.80;68.80;;;;;;5063960;27;46483;-69
2022/12/08 03:44:26;;;;;;;22.20;12.50;;;1.90;67.60;;;;;;5064992;28;46304;-69
2022/12/08 03:46:52;;;;;;;23.77;13.50;;;1.90;68.60;;;;;;5067893;28;48266;-72
2022/12/08 03:49:18;;;;;;;32.07;14.77;;;1.90;68.40;;;;;;5067625;28;46128;-69
2022/12/08 03:51:43;;;;;;;23.73;12.50;;;1.90;68.60;;;;;;5067492;28;46429;-68
2022/12/08 03:54:09;;;;;;;24.57;13.63;;;2.00;68.50;;;;;;5068055;28;46443;-70
2022/12/08 03:56:37;;;;;;;21.37;11.97;;;1.90;67.30;;;;;;5067259;28;48982;-68
2022/12/08 03:59:04;;;;;;;25.38;14.15;;;2.00;68.40;;;;;;5068378;28;46407;-69
2022/12/08 04:01:30;;;;;;;25.10;12.70;;;2.40;68.90;;;;;;5066147;28;46594;-69
2022/12/08 04:03:55;;;;;;;26.20;13.70;;;2.00;68.60;;;;;;5067482;28;46405;-70
2022/12/08 04:06:21;;;;;;;23.33;12.67;;;2.10;67.20;;;;;;5069918;28;48117;-71
2022/12/08 04:08:48;;;;;;;26.02;13.32;;;2.10;68.10;;;;;;5058487;28;46420;-70
2022/12/08 04:11:14;;;;;;;23.58;12.73;;;2.10;67.90;;;;;;5070420;28;46630;-70
2022/12/08 04:13:42;;;;;;;26.43;14.23;;;2.10;67.90;;;;;;5068702;28;46409;-69
2022/12/08 04:16:13;;;;;;;20.65;12.27;;;2.10;67.10;;;;;;5065009;28;46358;-69
2022/12/08 04:18:38;;;;;;;23.20;13.13;;;2.10;68.30;;;;;;5065797;28;46333;-69
2022/12/08 04:21:04;;;;;;;23.77;11.87;;;2.00;68.40;;;;;;5083962;27;46344;-69
2022/12/08 04:23:30;;;;;;;20.13;11.33;;;2.00;68.70;;;;;;5064671;28;46568;-68
2022/12/08 04:25:55;;;;;;;19.00;11.60;;;1.90;68.00;;;;;;5066152;28;49220;-68
2022/12/08 04:28:21;;;;;;;24.73;11.80;;;1.80;69.10;;;;;;5068179;28;46506;-68
2022/12/08 04:30:48;;;;;;;19.57;11.07;;;1.80;69.10;;;;;;5067273;28;46418;-69
2022/12/08 04:33:14;;;;;;;22.10;11.38;;;1.80;69.10;;;;;;5065383;28;46298;-68
2022/12/08 04:35:39;;;;;;;18.80;10.70;;;1.90;67.70;;;;;;5064461;28;49117;-69
2022/12/08 04:38:05;;;;;;;22.97;12.30;;;1.80;68.80;;;;;;5065630;28;46347;-69
2022/12/08 04:40:32;;;;;;;25.13;12.80;;;1.90;68.80;;;;;;5062896;28;46505;-69
2022/12/08 04:42:58;;;;;;;22.42;13.07;;;1.90;68.40;;;;;;5062805;28;46661;-69
2022/12/08 04:45:23;;;;;;;25.10;13.37;;;1.90;68.20;;;;;;5074775;27;48662;-69
2022/12/08 04:47:49;;;;;;;25.30;14.23;;;2.00;68.20;;;;;;5068251;28;45878;-68
2022/12/08 04:50:15;;;;;;;24.23;12.40;;;1.90;68.20;;;;;;5064222;28;46558;-70
2022/12/08 04:52:41;;;;;;;24.20;12.17;;;1.90;68.50;;;;;;5065887;28;46485;-71
2022/12/08 04:55:06;;;;;;;32.17;12.17;;;1.80;68.50;;;;;;5065094;28;47970;-71
2022/12/08 04:57:32;;;;;;;23.67;12.67;;;1.80;68.50;;;;;;5066385;28;46275;-70
2022/12/08 04:59:58;;;;;;;24.27;13.77;;;1.70;68.80;;;;;;5071307;27;46445;-68
2022/12/08 05:02:24;;;;;;;22.87;11.90;;;1.70;68.80;;;;;;5074319;28;46423;-69
2022/12/08 05:04:50;;;;;;;22.63;11.87;;;1.80;67.70;;;;;;5073655;28;48822;-69
2022/12/08 05:07:15;;;;;;;23.60;11.50;;;1.80;68.80;;;;;;5068869;28;46552;-71
2022/12/08 05:09:41;;;;;;;25.83;14.47;;;1.70;68.80;;;;;;5071295;28;46499;-68
2022/12/08 05:12:07;;;;;;;35.77;18.10;;;1.70;69.10;;;;;;5064813;28;46436;-69
2022/12/08 05:14:32;;;;;;;82.67;35.33;;;1.90;68.00;;;;;;5067652;28;46396;-68
2022/12/08 05:16:58;;;;;;;38.37;17.33;;;2.00;69.00;;;;;;5081126;27;46603;-70
2022/12/08 05:19:24;;;;;;;22.87;11.70;;;2.20;68.80;;;;;;5078580;27;46529;-69
2022/12/08 05:21:49;;;;;;;25.27;14.20;;;2.20;68.70;;;;;;5071579;28;46627;-68
2022/12/08 05:24:15;;;;;;;36.50;18.00;;;2.20;67.60;;;;;;5069122;28;49153;-68
2022/12/08 05:26:41;;;;;;;29.43;14.33;;;2.20;68.70;;;;;;5070223;28;46498;-70
2022/12/08 05:29:06;;;;;;;22.60;12.00;;;2.20;68.70;;;;;;5070697;28;46287;-68
2022/12/08 05:31:32;;;;;;;28.67;14.57;;;2.10;68.80;;;;;;5070387;28;45908;-70
2022/12/08 05:33:58;;;;;;;29.80;15.13;;;2.10;68.80;;;;;;5067867;28;48934;-71
2022/12/08 05:36:24;;;;;;;36.95;16.63;;;2.20;67.70;;;;;;5067156;28;46383;-70
2022/12/08 05:38:50;;;;;;;42.17;20.27;;;2.20;68.80;;;;;;5063932;28;46316;-69
2022/12/08 05:41:20;;;;;;;25.63;13.27;;;2.20;68.70;;;;;;5072015;28;46753;-70
2022/12/08 05:43:46;;;;;;;39.13;18.77;;;2.20;68.90;;;;;;5066430;28;47982;-69
2022/12/08 05:46:13;;;;;;;45.38;19.95;;;2.20;68.00;;;;;;5064925;28;46729;-68
2022/12/08 05:48:39;;;;;;;28.45;15.57;;;2.30;69.10;;;;;;5069799;28;46342;-70
2022/12/08 05:51:10;;;;;;;29.95;15.73;;;2.20;69.00;;;;;;5088729;27;46104;-70
2022/12/08 05:53:36;;;;;;;38.00;16.85;;;2.20;70.30;;;;;;5078843;27;47824;-70
2022/12/08 05:56:02;;;;;;;32.77;15.93;;;2.20;68.20;;;;;;5068155;28;46497;-69
2022/12/08 05:58:28;;;;;;;22.87;12.67;;;2.20;69.50;;;;;;5068044;27;46463;-68
2022/12/08 06:00:53;;;;;;;25.87;14.40;;;2.00;69.90;;;;;;5072368;28;46395;-70
2022/12/08 06:03:19;;;;;;;23.90;13.07;;;1.80;70.80;;;;;;5069548;27;47441;-71
2022/12/08 06:05:46;;;;;;;25.27;12.77;;;1.60;69.70;;;;;;5070734;28;46384;-68
2022/12/08 06:08:12;;;;;;;24.02;13.18;;;1.50;70.60;;;;;;5067669;28;45894;-69
2022/12/08 06:10:39;;;;;;;25.17;12.95;;;1.40;70.50;;;;;;5068040;27;46414;-70
2022/12/08 06:13:05;;;;;;;22.75;12.00;;;1.40;70.50;;;;;;5068978;28;48003;-67
2022/12/08 06:15:34;;;;;;;26.02;13.07;;;1.40;69.50;;;;;;5068852;28;46487;-68
2022/12/08 06:18:00;;;;;;;25.35;14.10;;;1.40;70.60;;;;;;5066212;28;46423;-68
2022/12/08 06:20:26;;;;;;;23.80;12.97;;;1.40;70.50;;;;;;5086912;27;46341;-69
2022/12/08 06:22:53;;;;;;;31.23;16.90;;;1.40;70.50;;;;;;5065390;28;49232;-68
2022/12/08 06:25:19;;;;;;;26.17;13.98;;;1.40;69.50;;;;;;5066301;28;46314;-71
2022/12/08 06:27:44;;;;;;;40.93;20.30;;;1.20;70.40;;;;;;5068261;28;46448;-70
2022/12/08 06:30:10;;;;;;;25.00;12.67;;;1.20;70.40;;;;;;5069293;28;46477;-68
2022/12/08 06:32:36;;;;;;;30.73;13.77;;;1.10;70.80;;;;;;5069089;28;46556;-68
2022/12/08 06:35:02;;;;;;;29.53;15.43;;;1.20;69.40;;;;;;5069736;28;46432;-68
2022/12/08 06:37:28;;;;;;;32.13;15.83;;;1.20;70.50;;;;;;5067317;28;46431;-68
2022/12/08 06:39:53;;;;;;;31.53;17.07;;;1.20;70.40;;;;;;5065942;28;46284;-68
2022/12/08 06:45:04;;;;;;;28.38;15.25;;;1.30;69.40;;;;;;5067604;28;46372;-68
2022/12/08 06:47:30;;;;;;;27.25;14.20;;;1.30;70.50;;;;;;5085351;27;46495;-68
2022/12/08 06:49:56;;;;;;;28.03;13.60;;;1.30;70.50;;;;;;5067578;28;46541;-71
2022/12/08 06:52:21;;;;;;;30.03;15.70;;;1.30;70.50;;;;;;5066109;28;47936;-70
2022/12/08 06:54:47;;;;;;;38.87;18.20;;;1.40;70.50;;;;;;5069040;28;46534;-70
2022/12/08 06:57:13;;;;;;;33.10;16.67;;;1.50;70.60;;;;;;5067030;28;46450;-70
2022/12/08 06:59:38;;;;;;;29.17;15.13;;;1.50;70.50;;;;;;5068123;28;46709;-70
2022/12/08 07:02:04;;;;;;;37.30;16.67;;;1.50;70.40;;;;;;5065098;27;47916;-70
2022/12/08 07:04:30;;;;;;;34.93;16.67;;;1.70;69.30;;;;;;5068195;28;46417;-68
2022/12/08 07:06:56;;;;;;;28.00;15.40;;;1.70;70.20;;;;;;5066639;28;46603;-68
2022/12/08 07:09:21;;;;;;;24.27;13.97;;;1.80;70.20;;;;;;5069331;28;46503;-68
2022/12/08 07:11:47;;;;;;;27.50;14.57;;;1.70;70.40;;;;;;5072031;28;46540;-69
2022/12/08 07:14:13;;;;;;;32.43;14.47;;;2.10;71.20;;;;;;5071834;28;46331;-71
2022/12/08 07:16:39;;;;;;;31.60;16.10;;;1.70;69.80;;;;;;5067203;28;46348;-71
2022/12/08 07:19:05;;;;;;;26.70;14.93;;;1.80;70.40;;;;;;5064571;28;46361;-68
2022/12/08 07:21:31;;;;;;;29.02;14.60;;;1.80;69.70;;;;;;5067244;28;48055;-70
2022/12/08 07:23:57;;;;;;;31.80;14.60;;;1.90;69.60;;;;;;5062772;28;46403;-68
2022/12/08 07:26:22;;;;;;;26.87;13.97;;;1.90;68.40;;;;;;5068557;28;46389;-69
2022/12/08 07:28:48;;;;;;;28.00;15.37;;;2.00;69.40;;;;;;5061709;28;46493;-71
2022/12/08 07:31:22;;;;;;;26.10;14.67;;;2.00;69.30;;;;;;5065946;28;48363;-68
2022/12/08 07:33:49;;;;;;;28.77;14.15;;;2.10;69.10;;;;;;5064387;28;46668;-71
2022/12/08 07:36:17;;;;;;;22.67;12.55;;;2.10;68.20;;;;;;5068767;28;46405;-71
2022/12/08 07:38:43;;;;;;;27.67;14.77;;;2.00;69.40;;;;;;5065562;28;46018;-69
2022/12/08 07:41:14;;;;;;;26.73;14.70;;;2.10;69.40;;;;;;5068831;28;47715;-70
2022/12/08 07:43:41;;;;;;;30.90;14.77;;;2.20;69.00;;;;;;5063682;28;46528;-70
2022/12/08 07:46:10;;;;;;;29.38;13.85;;;2.30;67.60;;;;;;5082805;27;45855;-70
2022/12/08 07:48:35;;;;;;;20.52;11.40;;;2.20;68.60;;;;;;5067441;28;46362;-71
2022/12/08 07:51:02;;;;;;;23.93;12.50;;;2.20;68.80;;;;;;5067341;28;48798;-70
2022/12/08 07:53:28;;;;;;;20.73;12.00;;;2.20;68.90;;;;;;5067012;28;46447;-69
2022/12/08 07:55:54;;;;;;;25.98;14.07;;;2.30;68.00;;;;;;5076648;27;46527;-68
2022/12/08 07:58:20;;;;;;;44.97;19.65;;;2.30;69.00;;;;;;5065491;28;46408;-72
2022/12/08 08:00:46;;;;;;;47.00;21.07;;;2.40;69.00;;;;;;5069170;28;48059;-68
2022/12/08 08:03:11;;;;;;;26.80;14.10;;;2.50;67.60;;;;;;5065499;28;46476;-69
2022/12/08 08:05:37;;;;;;;27.00;14.50;;;2.60;67.60;;;;;;5067364;28;46428;-70
2022/12/08 08:08:04;;;;;;;31.00;15.77;;;2.60;68.60;;;;;;5065803;28;46534;-70
2022/12/08 08:10:29;;;;;;;31.25;17.90;;;2.70;68.50;;;;;;5065168;28;48068;-69
2022/12/08 08:12:58;;;;;;;46.10;23.80;;;2.80;68.30;;;;;;5069662;28;46593;-69
2022/12/08 08:15:24;;;;;;;34.85;17.75;;;2.90;66.90;;;;;;5064202;28;46476;-69
2022/12/08 08:17:50;;;;;;;29.07;16.73;;;3.00;67.80;;;;;;5064496;28;46338;-69
2022/12/08 08:20:17;;;;;;;30.55;18.10;;;3.10;67.30;;;;;;5065643;28;48686;-71
2022/12/08 08:22:44;;;;;;;30.25;17.88;;;3.20;67.20;;;;;;5071197;28;46549;-69
2022/12/08 08:25:10;;;;;;;21.30;13.00;;;3.30;66.10;;;;;;5065705;28;46477;-68
2022/12/08 08:27:36;;;;;;;23.33;13.10;;;3.30;67.10;;;;;;5067118;28;46625;-68
2022/12/08 08:30:03;;;;;;;20.23;12.27;;;3.20;67.30;;;;;;5067751;28;48247;-70
2022/12/08 08:32:32;;;;;;;44.15;27.45;;;3.20;67.60;;;;;;5067490;28;46431;-67
2022/12/08 08:35:01;;;;;;;26.35;15.20;;;3.30;67.60;;;;;;5067918;28;46582;-70
2022/12/08 08:37:27;;;;;;;25.80;14.27;;;3.30;67.50;;;;;;5066708;28;46725;-69
2022/12/08 08:39:53;;;;;;;27.80;14.30;;;3.30;67.80;;;;;;5068769;28;48006;-67
2022/12/08 08:42:19;;;;;;;26.97;14.83;;;3.30;67.70;;;;;;5071159;28;45816;-70
2022/12/08 08:44:44;;;;;;;29.20;16.10;;;3.40;67.60;;;;;;5068829;28;46416;-68
2022/12/08 08:47:10;;;;;;;26.17;14.40;;;3.50;67.60;;;;;;5070581;28;46410;-69
2022/12/08 08:49:36;;;;;;;25.23;14.23;;;3.50;67.60;;;;;;5073163;28;48066;-68
2022/12/08 08:52:03;;;;;;;24.50;13.30;;;3.50;67.60;;;;;;5069588;28;46664;-68
2022/12/08 08:54:29;;;;;;;28.50;15.57;;;3.40;67.10;;;;;;5067115;28;45831;-69
2022/12/08 08:56:59;;;;;;;36.17;17.50;;;3.40;68.00;;;;;;5067588;28;46371;-70
2022/12/08 08:59:26;;;;;;;32.17;15.50;;;3.40;68.10;;;;;;5072947;28;47681;-70
2022/12/08 09:01:52;;;;;;;30.10;14.45;;;3.50;67.80;;;;;;5068628;28;46459;-69
2022/12/08 09:04:18;;;;;;;23.63;13.60;;;3.50;66.60;;;;;;5070787;28;46577;-69
2022/12/08 09:06:44;;;;;;;27.50;15.53;;;3.50;67.60;;;;;;5073253;28;46508;-70
2022/12/08 09:09:11;;;;;;;26.53;14.67;;;3.60;67.60;;;;;;5071587;28;47824;-70
2022/12/08 09:11:37;;;;;;;26.65;15.40;;;3.40;67.80;;;;;;5066953;28;46389;-69
2022/12/08 09:14:03;;;;;;;27.70;14.83;;;3.40;68.10;;;;;;5070913;27;46345;-68
2022/12/08 09:16:28;;;;;;;28.63;15.88;;;3.60;66.80;;;;;;5077679;27;46526;-68
2022/12/08 09:18:54;;;;;;;29.60;16.13;;;3.70;67.60;;;;;;5068122;28;48698;-69
2022/12/08 09:21:23;;;;;;;31.47;15.80;;;3.70;67.20;;;;;;5071163;28;46428;-69
2022/12/08 09:23:49;;;;;;;32.13;15.68;;;3.80;67.40;;;;;;5066775;28;46675;-68
2022/12/08 09:26:15;;;;;;;28.13;15.52;;;4.00;65.30;;;;;;5068743;28;46496;-70
2022/12/08 09:28:45;;;;;;;28.67;16.47;;;4.00;66.40;;;;;;5065982;28;46500;-69
2022/12/08 09:31:14;;;;;;;24.85;15.48;;;4.10;66.50;;;;;;5069363;28;46430;-69
2022/12/08 09:33:40;;;;;;;25.65;14.18;;;4.10;66.60;;;;;;5064623;28;46607;-68
2022/12/08 09:36:06;;;;;;;23.03;14.17;;;4.10;65.40;;;;;;5068765;28;46348;-67
2022/12/08 09:38:32;;;;;;;24.57;14.13;;;4.20;66.40;;;;;;5070994;28;48144;-70
2022/12/08 09:40:59;;;;;;;23.17;13.73;;;4.30;65.90;;;;;;5077401;27;46429;-69
2022/12/08 09:43:34;;;;;;;28.00;14.63;;;4.40;65.70;;;;;;5071496;28;46431;-69
2022/12/08 09:46:03;;;;;;;28.75;14.50;;;4.20;65.50;;;;;;5092968;27;46489;-69
2022/12/08 09:48:38;;;;;;;24.20;14.03;;;4.30;66.70;;;;;;5065180;28;48114;-68
2022/12/08 09:51:04;;;;;;;30.27;16.23;;;4.30;66.50;;;;;;5068362;28;46288;-67
2022/12/08 09:53:40;;;;;;;32.05;16.30;;;4.40;66.60;;;;;;5068374;28;46076;-70
2022/12/08 09:56:23;;;;;;;30.97;16.60;;;4.30;65.70;;;;;;5068925;28;45839;-67
2022/12/08 09:59:18;;;;;;;24.42;13.88;;;4.30;67.00;;;;;;5071375;28;48192;-69
2022/12/08 10:01:44;;;;;;;31.33;15.50;;;4.20;67.00;;;;;;5067350;28;46413;-68
2022/12/08 10:04:23;;;;;;;28.40;15.67;;;4.20;67.10;;;;;;5068674;28;45886;-68
2022/12/08 10:07:12;;;;;;;29.10;16.57;;;4.10;67.30;;;;;;5077938;27;46598;-70
2022/12/08 10:09:56;;;;;;;38.28;19.13;;;4.20;67.20;;;;;;5064692;28;47666;-68
2022/12/08 10:12:27;;;;;;;30.08;15.70;;;4.10;67.50;;;;;;5067838;28;46359;-69
2022/12/08 10:15:06;;;;;;;40.08;20.05;;;4.20;67.30;;;;;;5080949;27;46007;-69
2022/12/08 10:17:47;;;;;;;34.93;17.10;;;4.10;67.00;;;;;;5077625;27;46566;-70
2022/12/08 10:20:22;;;;;;;35.93;17.87;;;4.10;67.20;;;;;;5066974;28;48257;-67
2022/12/08 10:23:07;;;;;;;30.75;14.65;;;4.20;67.10;;;;;;5077252;27;46347;-69
2022/12/08 10:25:59;;;;;;;33.53;16.75;;;4.20;66.00;;;;;;5083095;27;46326;-69
2022/12/08 10:28:25;;;;;;;40.60;21.27;;;4.10;67.20;;;;;;5068375;28;46615;-69
2022/12/08 10:30:51;;;;;;;29.27;16.30;;;4.00;67.30;;;;;;5068451;28;48312;-69
2022/12/08 10:33:19;;;;;;;40.93;14.70;;;4.10;67.50;;;;;;5066870;28;46428;-69
2022/12/08 10:35:46;;;;;;;29.65;15.55;;;3.90;66.70;;;;;;5067898;28;46435;-70
2022/12/08 10:38:35;;;;;;;29.20;15.70;;;3.90;67.90;;;;;;5062388;28;46492;-68
2022/12/08 10:41:10;;;;;;;28.92;16.95;;;4.10;67.60;;;;;;5062563;28;47997;-68
2022/12/08 10:44:00;;;;;;;26.27;15.40;;;4.50;66.40;;;;;;5069511;28;46448;-69
2022/12/08 10:46:27;;;;;;;24.88;13.57;;;4.70;64.30;;;;;;5065174;28;45916;-68
2022/12/08 10:48:54;;;;;;;30.73;15.13;;;4.80;65.00;;;;;;5066623;28;46594;-68
2022/12/08 10:51:28;;;;;;;27.00;15.47;;;4.80;64.30;;;;;;5069036;28;47939;-69
2022/12/08 10:53:55;;;;;;;29.80;16.40;;;4.80;64.70;;;;;;5067844;28;46435;-69
2022/12/08 10:56:27;;;;;;;24.17;14.65;;;4.80;63.40;;;;;;5064618;28;46340;-69
2022/12/08 10:59:17;;;;;;;28.73;14.70;;;4.90;64.70;;;;;;5066346;28;46691;-67
2022/12/08 11:01:48;;;;;;;27.90;15.93;;;4.90;64.70;;;;;;5060952;27;46646;-68
2022/12/08 11:04:22;;;;;;;25.42;15.25;;;4.80;65.20;;;;;;5071241;28;46422;-70
2022/12/08 11:06:49;;;;;;;40.60;18.60;;;5.20;65.60;;;;;;5067575;28;46446;-69
2022/12/08 11:09:15;;;;;;;23.20;13.70;;;5.00;64.70;;;;;;5077071;27;46369;-69
2022/12/08 11:11:50;;;;;;;25.50;13.70;;;5.00;64.20;;;;;;5062834;28;48126;-70
2022/12/08 11:14:36;;;;;;;25.05;14.88;;;5.10;62.70;;;;;;5081183;27;46370;-67
2022/12/08 11:17:25;;;;;;;29.65;13.52;;;5.10;63.60;;;;;;5066157;28;46321;-69
2022/12/08 11:20:13;;;;;;;29.37;15.43;;;5.10;63.60;;;;;;5067902;28;46379;-68
2022/12/08 11:22:41;;;;;;;26.37;13.40;;;5.10;63.70;;;;;;5062759;27;48038;-68
2022/12/08 11:25:07;;;;;;;23.10;13.82;;;5.10;63.10;;;;;;5068922;28;46461;-69
2022/12/08 11:27:47;;;;;;;21.13;13.87;;;5.10;64.20;;;;;;5075214;28;46256;-70
2022/12/08 11:30:22;;;;;;;27.13;13.97;;;5.10;63.80;;;;;;5070522;28;46387;-68
2022/12/08 11:32:55;;;;;;;25.07;14.23;;;5.00;64.10;;;;;;5066425;28;48004;-69
2022/12/08 11:35:35;;;;;;;30.98;16.90;;;4.80;63.90;;;;;;5068781;28;46470;-69
2022/12/08 11:38:10;;;;;;;23.90;14.23;;;4.70;65.30;;;;;;5068244;28;46444;-69
2022/12/08 11:40:38;;;;;;;23.23;13.70;;;4.60;65.80;;;;;;5076437;27;46367;-68
2022/12/08 11:43:27;;;;;;;23.10;13.33;;;4.70;66.10;;;;;;5070743;28;46973;-67
2022/12/08 11:46:10;;;;;;;23.25;13.50;;;4.90;64.30;;;;;;5066189;28;46599;-70
2022/12/08 11:49:08;;;;;;;29.93;15.20;;;5.00;64.80;;;;;;5063858;28;46580;-69
2022/12/08 11:51:44;;;;;;;32.37;15.30;;;5.30;64.10;;;;;;5061396;28;46513;-68
2022/12/08 11:54:21;;;;;;;20.13;12.33;;;5.40;63.20;;;;;;5063359;28;48036;-69
2022/12/08 11:56:51;;;;;;;23.35;13.32;;;5.50;62.50;;;;;;5068452;28;46426;-70
2022/12/08 11:59:23;;;;;;;21.27;12.90;;;5.60;62.50;;;;;;5067367;28;46453;-68
2022/12/08 12:01:49;;;;;;;19.50;12.17;;;5.50;63.10;;;;;;5062436;28;46459;-69
2022/12/08 12:04:22;;;;;;;24.03;13.50;;;5.40;63.20;;;;;;5066122;28;47733;-70
2022/12/08 12:07:12;;;;;;;26.58;13.85;;;5.50;63.00;;;;;;5065756;28;46840;-69
2022/12/08 12:10:05;;;;;;;21.20;11.87;;;5.40;63.20;;;;;;5087019;27;46375;-69
2022/12/08 12:12:55;;;;;;;22.37;12.17;;;5.40;63.00;;;;;;5061515;28;46310;-68
2022/12/08 12:15:27;;;;;;;23.37;13.47;;;5.20;63.70;;;;;;5067932;28;46555;-68
2022/12/08 12:17:53;;;;;;;25.33;13.20;;;5.20;64.00;;;;;;5061131;28;46473;-70
2022/12/08 12:20:24;;;;;;;26.33;13.57;;;5.40;63.50;;;;;;5066076;28;46451;-67
2022/12/08 12:22:59;;;;;;;22.97;12.63;;;5.60;62.90;;;;;;5063871;28;46576;-67
2022/12/08 12:25:26;;;;;;;20.00;12.33;;;5.50;62.90;;;;;;5067190;28;48027;-68
2022/12/08 12:27:56;;;;;;;21.83;13.07;;;5.50;62.90;;;;;;5067401;28;46572;-69
2022/12/08 12:30:25;;;;;;;20.70;11.60;;;5.40;63.70;;;;;;5065045;28;46385;-70
2022/12/08 12:32:58;;;;;;;22.50;13.10;;;5.30;63.80;;;;;;5066213;28;46452;-69
2022/12/08 12:35:37;;;;;;;22.80;12.60;;;5.30;63.70;;;;;;5066821;28;47478;-68
2022/12/08 12:39:00;;;;;;;25.10;13.43;;;5.30;63.40;;;;;;5067000;28;46545;-69
2022/12/08 12:41:08;;;;;;;25.95;13.25;;;5.40;63.40;;;;;;5064746;27;46484;-69
2022/12/08 12:43:36;;;;;;;28.20;14.03;;;5.30;62.60;;;;;;5068648;28;46382;-68
2022/12/08 12:46:24;;;;;;;23.23;13.33;;;5.10;62.30;;;;;;5064536;28;48187;-68
2022/12/08 12:48:50;;;;;;;23.83;13.00;;;4.90;63.80;;;;;;5065212;28;46483;-69
2022/12/08 12:51:35;;;;;;;25.83;13.47;;;4.70;64.20;;;;;;5061807;27;46448;-67
2022/12/08 12:54:19;;;;;;;24.73;12.93;;;4.80;64.20;;;;;;5065562;28;46385;-67
2022/12/08 12:56:51;;;;;;;21.53;12.53;;;5.00;63.30;;;;;;5064218;28;48170;-67